Oriental Clematis — 9VJT5 — position and weather

sailwx.info

Track history (hours):
 
Tides and Currents Weather Stations Pressure Air Temp Water Temp Dewpoint Dewpoint Depression Visibility Wind Speed Wind Dir Waves Ship Positions

Oriental Clematis

Last reported at 2017-May-18 15:19 UTC. Time now 2017-May-26 05:36 UTC.
Position N 01°15' E 104°04'.

Length 134 m; draft 6.6 m.

Type: Ship (hazmat cat C). MMSI: 565157000.

Date/timePositionNaut miles runAvg speedWind from/ knotsBaromVisibWave heightAir tempDewpointWater temp
2017-May-18 15:19N 01°15' E 104°04'310.4
2017-May-18 15:00N 01°14' E 104°01'1010.3
2017-May-18 14:00N 01°11' E 103°51'5 9.9
2017-May-18 13:30N 01°09' E 103°47'510.4
2017-May-18 13:00N 01°05' E 103°43'510.3
2017-May-18 12:30N 01°03' E 103°38'611.2
2017-May-18 11:58N 01°06' E 103°33'4 9.0
2017-May-18 11:30N 01°10' E 103°34'5 9.9
2017-May-18 11:00N 01°12' E 103°39'2 2.9
2017-May-18 10:28N 01°14' E 103°39'0 0.0
2017-May-18 09:55N 01°14' E 103°39'0 0.0
2017-May-18 09:25N 01°13' E 103°39'0 0.2
2017-May-18 08:52N 01°13' E 103°39'0 0.1
2017-May-18 08:22N 01°13' E 103°39'0 0.0
2017-May-18 07:58N 01°13' E 103°39'0 0.0
2017-May-18 07:19N 01°13' E 103°39'0 0.0
2017-May-18 06:58N 01°13' E 103°39'0 0.0
2017-May-18 06:28N 01°13' E 103°39'0 0.0
2017-May-18 05:58N 01°13' E 103°39'0 0.0
2017-May-18 05:28N 01°13' E 103°39'0 0.0
2017-May-18 04:55N 01°13' E 103°39'0 0.0
2017-May-18 04:28N 01°13' E 103°39'0 0.1
2017-May-18 03:55N 01°14' E 103°39'0 0.1
2017-May-18 03:28N 01°14' E 103°39'0 0.0
2017-May-18 02:58N 01°14' E 103°39'0 0.0
2017-May-18 02:28N 01°14' E 103°39'0 0.1
2017-May-18 01:55N 01°14' E 103°39'0 0.3
2017-May-18 01:28N 01°14' E 103°39'0 0.0
2017-May-18 00:55N 01°13' E 103°39'0 0.0
2017-May-18 00:28N 01°13' E 103°39'0 0.0
2017-May-17 23:58N 01°13' E 103°39'0 0.0
2017-May-17 23:28N 01°13' E 103°39'0 0.0
2017-May-17 22:56N 01°13' E 103°39'0 0.3
2017-May-17 22:30N 01°14' E 103°39'2 4.7
2017-May-17 22:00N 01°12' E 103°40'2 3.9
2017-May-17 21:30N 01°10' E 103°42'5 9.1
2017-May-17 21:00N 01°09' E 103°46'510.3
2017-May-17 20:30N 01°12' E 103°50'611.0
2017-May-17 20:00N 01°14' E 103°55'611.3
2017-May-17 19:30N 01°16' E 104°01'7 6.0
2017-May-17 18:23N 01°23' E 104°02'3 8.2
2017-May-17 18:00N 01°24' E 103°59'4 9.2
2017-May-17 17:30N 01°26' E 103°55'1 0.9
2017-May-17 16:58N 01°26' E 103°54'0 0.0
2017-May-17 16:28N 01°26' E 103°54'0 0.0
2017-May-17 15:58N 01°26' E 103°54'0 0.0
2017-May-17 08:34N 01°26' E 103°54'0 0.0
2017-May-17 08:10N 01°26' E 103°54'0 0.0
2017-May-17 04:07N 01°26' E 103°54'0 0.0
2017-May-17 02:16N 01°26' E 103°54'0 0.0
2017-May-17 01:52N 01°26' E 103°54'0 0.0
2017-May-17 01:22N 01°26' E 103°54'0 0.0
2017-May-16 21:31N 01°26' E 103°54'0 0.0
2017-May-16 21:30N 01°26' E 103°54'1 2.0
2017-May-16 21:00N 01°25' E 103°55'4 7.8
2017-May-16 20:30N 01°24' E 103°58'510.2
2017-May-16 19:58N 01°21' E 104°03'3 6.7
2017-May-16 19:30N 01°19' E 104°06'4 8.4
2017-May-16 18:58N 01°15' E 104°04'612.6
2017-May-16 18:30N 01°14' E 103°58'612.3
2017-May-16 18:00N 01°12' E 103°52'611.8
2017-May-16 17:30N 01°09' E 103°47'611.8
2017-May-16 17:00N 01°05' E 103°43'510.3
2017-May-16 16:30N 01°03' E 103°38'611.0
2017-May-16 15:59N 01°07' E 103°33'510.8
2017-May-16 15:30N 01°09' E 103°28'510.6
2017-May-16 15:00N 01°12' E 103°24'511.0
2017-May-16 14:30N 01°15' E 103°20'5611.0
2017-May-16 09:26N 01°45' E 102°32'611.1
2017-May-16 08:53N 01°48' E 102°27'611.4
2017-May-16 08:19N 01°51' E 102°21'  
Track history (hours):
 
Tides and Currents Weather Stations Pressure Air Temp Water Temp Dewpoint Dewpoint Depression Visibility Wind Speed Wind Dir Waves Ship Positions

Oriental Clematis

Last reported at 2017-May-18 15:19 UTC. Time now 2017-May-26 05:36 UTC.
Position N 01°15' E 104°04'.

Length 134 m; draft 6.6 m.

Type: Ship (hazmat cat C). MMSI: 565157000.

Date/timePositionNaut miles runAvg speedWind from/ knotsBaromVisibWave heightAir tempDewpointWater temp
2017-May-18 15:19N 01°15' E 104°04'310.4
2017-May-18 15:00N 01°14' E 104°01'1010.3
2017-May-18 14:00N 01°11' E 103°51'5 9.9
2017-May-18 13:30N 01°09' E 103°47'510.4
2017-May-18 13:00N 01°05' E 103°43'510.3
2017-May-18 12:30N 01°03' E 103°38'611.2
2017-May-18 11:58N 01°06' E 103°33'4 9.0
2017-May-18 11:30N 01°10' E 103°34'5 9.9
2017-May-18 11:00N 01°12' E 103°39'2 2.9
2017-May-18 10:28N 01°14' E 103°39'0 0.0
2017-May-18 09:55N 01°14' E 103°39'0 0.0
2017-May-18 09:25N 01°13' E 103°39'0 0.2
2017-May-18 08:52N 01°13' E 103°39'0 0.1
2017-May-18 08:22N 01°13' E 103°39'0 0.0
2017-May-18 07:58N 01°13' E 103°39'0 0.0
2017-May-18 07:19N 01°13' E 103°39'0 0.0
2017-May-18 06:58N 01°13' E 103°39'0 0.0
2017-May-18 06:28N 01°13' E 103°39'0 0.0
2017-May-18 05:58N 01°13' E 103°39'0 0.0
2017-May-18 05:28N 01°13' E 103°39'0 0.0
2017-May-18 04:55N 01°13' E 103°39'0 0.0
2017-May-18 04:28N 01°13' E 103°39'0 0.1
2017-May-18 03:55N 01°14' E 103°39'0 0.1
2017-May-18 03:28N 01°14' E 103°39'0 0.0
2017-May-18 02:58N 01°14' E 103°39'0 0.0
2017-May-18 02:28N 01°14' E 103°39'0 0.1
2017-May-18 01:55N 01°14' E 103°39'0 0.3
2017-May-18 01:28N 01°14' E 103°39'0 0.0
2017-May-18 00:55N 01°13' E 103°39'0 0.0
2017-May-18 00:28N 01°13' E 103°39'0 0.0
2017-May-17 23:58N 01°13' E 103°39'0 0.0
2017-May-17 23:28N 01°13' E 103°39'0 0.0
2017-May-17 22:56N 01°13' E 103°39'0 0.3
2017-May-17 22:30N 01°14' E 103°39'2 4.7
2017-May-17 22:00N 01°12' E 103°40'2 3.9
2017-May-17 21:30N 01°10' E 103°42'5 9.1
2017-May-17 21:00N 01°09' E 103°46'510.3
2017-May-17 20:30N 01°12' E 103°50'611.0
2017-May-17 20:00N 01°14' E 103°55'611.3
2017-May-17 19:30N 01°16' E 104°01'7 6.0
2017-May-17 18:23N 01°23' E 104°02'3 8.2
2017-May-17 18:00N 01°24' E 103°59'4 9.2
2017-May-17 17:30N 01°26' E 103°55'1 0.9
2017-May-17 16:58N 01°26' E 103°54'0 0.0
2017-May-17 16:28N 01°26' E 103°54'0 0.0
2017-May-17 15:58N 01°26' E 103°54'0 0.0
2017-May-17 08:34N 01°26' E 103°54'0 0.0
2017-May-17 08:10N 01°26' E 103°54'0 0.0
2017-May-17 04:07N 01°26' E 103°54'0 0.0
2017-May-17 02:16N 01°26' E 103°54'0 0.0
2017-May-17 01:52N 01°26' E 103°54'0 0.0
2017-May-17 01:22N 01°26' E 103°54'0 0.0
2017-May-16 21:31N 01°26' E 103°54'0 0.0
2017-May-16 21:30N 01°26' E 103°54'1 2.0
2017-May-16 21:00N 01°25' E 103°55'4 7.8
2017-May-16 20:30N 01°24' E 103°58'510.2
2017-May-16 19:58N 01°21' E 104°03'3 6.7
2017-May-16 19:30N 01°19' E 104°06'4 8.4
2017-May-16 18:58N 01°15' E 104°04'612.6
2017-May-16 18:30N 01°14' E 103°58'612.3
2017-May-16 18:00N 01°12' E 103°52'611.8
2017-May-16 17:30N 01°09' E 103°47'611.8
2017-May-16 17:00N 01°05' E 103°43'510.3
2017-May-16 16:30N 01°03' E 103°38'611.0
2017-May-16 15:59N 01°07' E 103°33'510.8
2017-May-16 15:30N 01°09' E 103°28'510.6
2017-May-16 15:00N 01°12' E 103°24'511.0
2017-May-16 14:30N 01°15' E 103°20'5611.0
2017-May-16 09:26N 01°45' E 102°32'611.1
2017-May-16 08:53N 01°48' E 102°27'611.4
2017-May-16 08:19N 01°51' E 102°21'  

Dump ship's entire track history